sensor_id;sensor_type;location;lat;lon;timestamp;temperature;humidity
3792;DHT22;1911;53.768;11.474;2023-03-01T00:01:36;-1.10;99.90
3792;DHT22;1911;53.768;11.474;2023-03-01T00:04:01;-1.00;99.90
3792;DHT22;1911;53.768;11.474;2023-03-01T00:06:27;-1.00;99.90
3792;DHT22;1911;53.768;11.474;2023-03-01T00:08:53;-1.00;99.90
3792;DHT22;1911;53.768;11.474;2023-03-01T00:11:20;-1.00;99.90
3792;DHT22;1911;53.768;11.474;2023-03-01T00:13:47;-1.00;99.90
3792;DHT22;1911;53.768;11.474;2023-03-01T00:16:18;-1.00;99.90
3792;DHT22;1911;53.768;11.474;2023-03-01T00:18:44;-1.00;99.90
3792;DHT22;1911;53.768;11.474;2023-03-01T00:21:10;-0.90;99.90
3792;DHT22;1911;53.768;11.474;2023-03-01T00:23:36;-1.00;99.90
3792;DHT22;1911;53.768;11.474;2023-03-01T00:26:06;-1.00;99.90
3792;DHT22;1911;53.768;11.474;2023-03-01T00:28:32;-1.00;99.90
3792;DHT22;1911;53.768;11.474;2023-03-01T00:31:06;-1.10;99.90
3792;DHT22;1911;53.768;11.474;2023-03-01T00:33:32;-1.20;99.90
3792;DHT22;1911;53.768;11.474;2023-03-01T00:35:59;-1.20;99.90
3792;DHT22;1911;53.768;11.474;2023-03-01T00:38:25;-1.20;99.90
3792;DHT22;1911;53.768;11.474;2023-03-01T00:40:50;-1.20;99.90
3792;DHT22;1911;53.768;11.474;2023-03-01T00:43:17;-1.10;99.90
3792;DHT22;1911;53.768;11.474;2023-03-01T00:45:43;-1.10;99.90
3792;DHT22;1911;53.768;11.474;2023-03-01T00:48:09;-1.10;99.90
3792;DHT22;1911;53.768;11.474;2023-03-01T00:50:34;-1.10;99.90
3792;DHT22;1911;53.768;11.474;2023-03-01T00:53:00;-1.20;99.90
3792;DHT22;1911;53.768;11.474;2023-03-01T00:55:26;-1.10;99.90
3792;DHT22;1911;53.768;11.474;2023-03-01T00:57:51;-1.10;99.90
3792;DHT22;1911;53.768;11.474;2023-03-01T01:00:20;-1.20;99.90
3792;DHT22;1911;53.768;11.474;2023-03-01T01:02:46;-1.20;99.90
3792;DHT22;1911;53.768;11.474;2023-03-01T01:05:14;-1.20;99.90
3792;DHT22;1911;53.768;11.474;2023-03-01T01:07:46;-1.20;99.90
3792;DHT22;1911;53.768;11.474;2023-03-01T01:10:12;-1.20;99.90
3792;DHT22;1911;53.768;11.474;2023-03-01T01:12:43;-1.30;99.90
3792;DHT22;1911;53.768;11.474;2023-03-01T01:15:09;-1.30;99.90
3792;DHT22;1911;53.768;11.474;2023-03-01T01:17:37;-1.20;99.90
3792;DHT22;1911;53.768;11.474;2023-03-01T01:20:03;-1.30;99.90
3792;DHT22;1911;53.768;11.474;2023-03-01T01:22:31;-1.30;99.90
3792;DHT22;1911;53.768;11.474;2023-03-01T01:24:57;-1.30;99.90
3792;DHT22;1911;53.768;11.474;2023-03-01T01:27:22;-1.20;99.90
3792;DHT22;1911;53.768;11.474;2023-03-01T01:29:48;-1.20;99.90
3792;DHT22;1911;53.768;11.474;2023-03-01T01:32:13;-1.10;99.90
3792;DHT22;1911;53.768;11.474;2023-03-01T01:34:39;-1.10;99.90
3792;DHT22;1911;53.768;11.474;2023-03-01T01:37:05;-1.10;99.90
3792;DHT22;1911;53.768;11.474;2023-03-01T01:39:34;-1.10;99.90
3792;DHT22;1911;53.768;11.474;2023-03-01T01:42:00;-1.30;99.90
3792;DHT22;1911;53.768;11.474;2023-03-01T01:44:28;-1.30;99.90
3792;DHT22;1911;53.768;11.474;2023-03-01T01:46:57;-1.40;99.90
3792;DHT22;1911;53.768;11.474;2023-03-01T01:52:12;-1.40;99.90
3792;DHT22;1911;53.768;11.474;2023-03-01T01:57:26;-1.40;99.90
3792;DHT22;1911;53.768;11.474;2023-03-01T01:59:54;-1.40;99.90
3792;DHT22;1911;53.768;11.474;2023-03-01T02:02:21;-1.40;99.90
3792;DHT22;1911;53.768;11.474;2023-03-01T02:04:50;-1.30;99.90
3792;DHT22;1911;53.768;11.474;2023-03-01T02:07:21;-1.40;99.90
3792;DHT22;1911;53.768;11.474;2023-03-01T02:09:49;-1.30;99.90
3792;DHT22;1911;53.768;11.474;2023-03-01T02:12:18;-1.20;99.90
3792;DHT22;1911;53.768;11.474;2023-03-01T02:14:46;-1.10;99.90
3792;DHT22;1911;53.768;11.474;2023-03-01T08:43:12;5.20;99.90
3792;DHT22;1911;53.768;11.474;2023-03-01T08:45:38;5.00;99.90
3792;DHT22;1911;53.768;11.474;2023-03-01T08:48:04;4.50;99.90
3792;DHT22;1911;53.768;11.474;2023-03-01T08:50:29;4.50;99.90
3792;DHT22;1911;53.768;11.474;2023-03-01T08:52:55;4.50;99.90
3792;DHT22;1911;53.768;11.474;2023-03-01T08:55:20;4.30;99.90
3792;DHT22;1911;53.768;11.474;2023-03-01T08:57:46;4.60;99.90
3792;DHT22;1911;53.768;11.474;2023-03-01T09:00:12;4.80;99.90
3792;DHT22;1911;53.768;11.474;2023-03-01T09:02:40;5.10;99.90
3792;DHT22;1911;53.768;11.474;2023-03-01T09:05:05;5.10;99.90
3792;DHT22;1911;53.768;11.474;2023-03-01T09:07:31;4.90;99.90
3792;DHT22;1911;53.768;11.474;2023-03-01T09:09:56;4.40;99.90
3792;DHT22;1911;53.768;11.474;2023-03-01T09:12:22;4.20;99.90
3792;DHT22;1911;53.768;11.474;2023-03-01T09:14:48;4.40;99.90
3792;DHT22;1911;53.768;11.474;2023-03-01T09:17:13;4.60;99.90
3792;DHT22;1911;53.768;11.474;2023-03-01T09:19:39;4.80;99.90
3792;DHT22;1911;53.768;11.474;2023-03-01T09:22:05;4.80;99.90
3792;DHT22;1911;53.768;11.474;2023-03-01T09:24:30;4.70;99.90
3792;DHT22;1911;53.768;11.474;2023-03-01T09:26:56;4.70;99.90
3792;DHT22;1911;53.768;11.474;2023-03-01T09:29:22;4.70;99.90
3792;DHT22;1911;53.768;11.474;2023-03-01T09:31:48;4.90;99.90
3792;DHT22;1911;53.768;11.474;2023-03-01T09:34:13;5.40;99.90
3792;DHT22;1911;53.768;11.474;2023-03-01T09:36:41;5.70;99.90
3792;DHT22;1911;53.768;11.474;2023-03-01T09:39:07;5.90;99.90
3792;DHT22;1911;53.768;11.474;2023-03-01T09:46:44;6.60;99.90
3792;DHT22;1911;53.768;11.474;2023-03-01T09:49:14;7.40;99.90
3792;DHT22;1911;53.768;11.474;2023-03-01T09:51:42;8.00;99.90
3792;DHT22;1911;53.768;11.474;2023-03-01T09:54:09;8.30;99.90
3792;DHT22;1911;53.768;11.474;2023-03-01T09:59:28;8.50;99.90
3792;DHT22;1911;53.768;11.474;2023-03-01T10:01:59;8.70;99.90
3792;DHT22;1911;53.768;11.474;2023-03-01T10:04:48;8.50;99.90
3792;DHT22;1911;53.768;11.474;2023-03-01T10:07:32;8.20;99.90
3792;DHT22;1911;53.768;11.474;2023-03-01T10:10:00;7.70;99.90
3792;DHT22;1911;53.768;11.474;2023-03-01T10:12:35;7.20;99.90
3792;DHT22;1911;53.768;11.474;2023-03-01T10:15:09;6.70;99.90
3792;DHT22;1911;53.768;11.474;2023-03-01T10:17:51;6.20;99.90
3792;DHT22;1911;53.768;11.474;2023-03-01T10:20:26;6.00;99.90
3792;DHT22;1911;53.768;11.474;2023-03-01T10:22:55;5.90;99.90
3792;DHT22;1911;53.768;11.474;2023-03-01T10:28:29;5.60;99.90
3792;DHT22;1911;53.768;11.474;2023-03-01T10:30:57;5.30;99.90
3792;DHT22;1911;53.768;11.474;2023-03-01T10:33:27;5.50;99.90
3792;DHT22;1911;53.768;11.474;2023-03-01T10:35:54;5.60;99.90
3792;DHT22;1911;53.768;11.474;2023-03-01T10:38:20;5.70;99.90
3792;DHT22;1911;53.768;11.474;2023-03-01T10:40:57;5.90;99.90
3792;DHT22;1911;53.768;11.474;2023-03-01T10:43:30;6.10;99.90
3792;DHT22;1911;53.768;11.474;2023-03-01T10:45:57;6.10;99.90
3792;DHT22;1911;53.768;11.474;2023-03-01T10:48:25;6.20;99.90
3792;DHT22;1911;53.768;11.474;2023-03-01T10:53:41;5.90;99.90
3792;DHT22;1911;53.768;11.474;2023-03-01T10:56:10;5.80;99.90
3792;DHT22;1911;53.768;11.474;2023-03-01T10:58:40;5.90;99.90
3792;DHT22;1911;53.768;11.474;2023-03-01T11:01:25;6.00;99.90
3792;DHT22;1911;53.768;11.474;2023-03-01T11:04:12;6.30;99.90
3792;DHT22;1911;53.768;11.474;2023-03-01T11:06:40;6.40;99.90
3792;DHT22;1911;53.768;11.474;2023-03-01T11:09:22;6.30;99.90
3792;DHT22;1911;53.768;11.474;2023-03-01T11:11:56;6.60;99.90
3792;DHT22;1911;53.768;11.474;2023-03-01T11:14:24;6.70;99.90
3792;DHT22;1911;53.768;11.474;2023-03-01T11:17:11;6.80;99.90
3792;DHT22;1911;53.768;11.474;2023-03-01T11:19:38;7.00;99.90
3792;DHT22;1911;53.768;11.474;2023-03-01T11:22:33;7.20;99.90
3792;DHT22;1911;53.768;11.474;2023-03-01T11:25:00;7.00;99.90
3792;DHT22;1911;53.768;11.474;2023-03-01T11:27:31;7.10;99.90
3792;DHT22;1911;53.768;11.474;2023-03-01T11:32:47;7.60;99.90
3792;DHT22;1911;53.768;11.474;2023-03-01T11:35:27;7.80;99.90
3792;DHT22;1911;53.768;11.474;2023-03-01T11:38:06;7.90;99.90
3792;DHT22;1911;53.768;11.474;2023-03-01T11:43:54;7.90;99.90
3792;DHT22;1911;53.768;11.474;2023-03-01T11:47:03;8.00;99.90
3792;DHT22;1911;53.768;11.474;2023-03-01T11:49:42;8.00;99.90
3792;DHT22;1911;53.768;11.474;2023-03-01T11:55:17;7.60;99.90
3792;DHT22;1911;53.768;11.474;2023-03-01T11:58:20;7.50;99.90
3792;DHT22;1911;53.768;11.474;2023-03-01T12:08:53;7.10;99.90
3792;DHT22;1911;53.768;11.474;2023-03-01T12:11:40;7.00;99.90
3792;DHT22;1911;53.768;11.474;2023-03-01T12:14:23;7.10;99.90
3792;DHT22;1911;53.768;11.474;2023-03-01T12:28:02;7.00;99.90
3792;DHT22;1911;53.768;11.474;2023-03-01T12:30:49;6.80;99.90
3792;DHT22;1911;53.768;11.474;2023-03-01T12:33:45;6.80;99.90
3792;DHT22;1911;53.768;11.474;2023-03-01T12:39:25;6.60;99.90
3792;DHT22;1911;53.768;11.474;2023-03-01T12:44:57;6.70;99.90
3792;DHT22;1911;53.768;11.474;2023-03-01T12:50:41;6.50;99.90
3792;DHT22;1911;53.768;11.474;2023-03-01T12:53:24;6.40;99.90
3792;DHT22;1911;53.768;11.474;2023-03-01T12:55:53;6.30;99.90
3792;DHT22;1911;53.768;11.474;2023-03-01T12:58:34;6.20;99.90
3792;DHT22;1911;53.768;11.474;2023-03-01T13:06:38;6.00;99.90
3792;DHT22;1911;53.768;11.474;2023-03-01T13:09:23;6.00;99.90
3792;DHT22;1911;53.768;11.474;2023-03-01T13:11:49;5.80;99.90
3792;DHT22;1911;53.768;11.474;2023-03-01T13:16:50;5.60;99.90
3792;DHT22;1911;53.768;11.474;2023-03-01T13:19:20;5.70;99.90
3792;DHT22;1911;53.768;11.474;2023-03-01T13:21:54;5.60;99.90
3792;DHT22;1911;53.768;11.474;2023-03-01T13:27:11;5.40;99.90
3792;DHT22;1911;53.768;11.474;2023-03-01T13:32:26;5.20;99.90
3792;DHT22;1911;53.768;11.474;2023-03-01T13:37:45;5.20;99.90
3792;DHT22;1911;53.768;11.474;2023-03-01T13:42:49;4.90;99.90
3792;DHT22;1911;53.768;11.474;2023-03-01T13:45:24;4.70;99.90
3792;DHT22;1911;53.768;11.474;2023-03-01T13:48:22;4.60;99.90
3792;DHT22;1911;53.768;11.474;2023-03-01T13:50:53;4.60;99.90
3792;DHT22;1911;53.768;11.474;2023-03-01T13:53:23;4.50;99.90
3792;DHT22;1911;53.768;11.474;2023-03-01T13:56:24;4.50;99.90
3792;DHT22;1911;53.768;11.474;2023-03-01T13:59:20;4.50;99.90
3792;DHT22;1911;53.768;11.474;2023-03-01T14:02:15;4.40;99.90
3792;DHT22;1911;53.768;11.474;2023-03-01T14:04:42;4.30;99.90
3792;DHT22;1911;53.768;11.474;2023-03-01T14:07:21;4.30;99.90
3792;DHT22;1911;53.768;11.474;2023-03-01T14:15:42;4.30;99.90
3792;DHT22;1911;53.768;11.474;2023-03-01T14:18:26;4.30;99.90
3792;DHT22;1911;53.768;11.474;2023-03-01T14:20:55;4.40;99.90
3792;DHT22;1911;53.768;11.474;2023-03-01T14:23:23;4.20;99.90
3792;DHT22;1911;53.768;11.474;2023-03-01T14:25:54;4.10;99.90
3792;DHT22;1911;53.768;11.474;2023-03-01T14:28:28;4.10;99.90
3792;DHT22;1911;53.768;11.474;2023-03-01T14:30:59;4.00;99.90
3792;DHT22;1911;53.768;11.474;2023-03-01T14:36:04;4.00;99.90
3792;DHT22;1911;53.768;11.474;2023-03-01T14:38:41;4.10;99.90
3792;DHT22;1911;53.768;11.474;2023-03-01T14:41:27;3.90;99.90
3792;DHT22;1911;53.768;11.474;2023-03-01T14:44:03;3.50;99.90
3792;DHT22;1911;53.768;11.474;2023-03-01T14:46:38;3.30;99.90
3792;DHT22;1911;53.768;11.474;2023-03-01T14:49:17;3.20;99.90
3792;DHT22;1911;53.768;11.474;2023-03-01T14:52:02;3.20;99.90
3792;DHT22;1911;53.768;11.474;2023-03-01T14:57:12;3.20;99.90
3792;DHT22;1911;53.768;11.474;2023-03-01T14:59:44;3.10;99.90
3792;DHT22;1911;53.768;11.474;2023-03-01T15:02:37;3.20;99.90
3792;DHT22;1911;53.768;11.474;2023-03-01T15:05:05;3.30;99.90
3792;DHT22;1911;53.768;11.474;2023-03-01T15:07:35;3.30;99.90
3792;DHT22;1911;53.768;11.474;2023-03-01T15:10:04;3.40;99.90
3792;DHT22;1911;53.768;11.474;2023-03-01T15:12:39;3.30;99.90
3792;DHT22;1911;53.768;11.474;2023-03-01T15:18:19;3.30;99.90
3792;DHT22;1911;53.768;11.474;2023-03-01T15:20:46;3.30;99.90
3792;DHT22;1911;53.768;11.474;2023-03-01T15:23:29;3.20;99.90
3792;DHT22;1911;53.768;11.474;2023-03-01T15:25:56;3.20;99.90
3792;DHT22;1911;53.768;11.474;2023-03-01T15:31:17;3.10;99.90
3792;DHT22;1911;53.768;11.474;2023-03-01T15:33:44;3.00;99.90
3792;DHT22;1911;53.768;11.474;2023-03-01T15:36:33;2.90;99.90
3792;DHT22;1911;53.768;11.474;2023-03-01T15:39:04;2.90;99.90
3792;DHT22;1911;53.768;11.474;2023-03-01T15:41:47;2.90;99.90
3792;DHT22;1911;53.768;11.474;2023-03-01T15:44:27;3.00;99.90
3792;DHT22;1911;53.768;11.474;2023-03-01T15:46:56;3.00;99.90
3792;DHT22;1911;53.768;11.474;2023-03-01T15:49:42;2.90;99.90
3792;DHT22;1911;53.768;11.474;2023-03-01T15:52:29;2.80;99.90
3792;DHT22;1911;53.768;11.474;2023-03-01T15:55:02;2.70;99.90
3792;DHT22;1911;53.768;11.474;2023-03-01T15:57:28;2.60;99.90
3792;DHT22;1911;53.768;11.474;2023-03-01T15:59:54;2.50;99.90
3792;DHT22;1911;53.768;11.474;2023-03-01T16:02:24;2.50;99.90
3792;DHT22;1911;53.768;11.474;2023-03-01T16:04:49;2.40;99.90
3792;DHT22;1911;53.768;11.474;2023-03-01T16:07:15;2.40;99.90
3792;DHT22;1911;53.768;11.474;2023-03-01T16:09:43;2.50;99.90
3792;DHT22;1911;53.768;11.474;2023-03-01T16:12:18;2.50;99.90
3792;DHT22;1911;53.768;11.474;2023-03-01T16:14:45;2.40;99.90
3792;DHT22;1911;53.768;11.474;2023-03-01T16:17:11;2.50;99.90
3792;DHT22;1911;53.768;11.474;2023-03-01T16:19:42;2.50;99.90
3792;DHT22;1911;53.768;11.474;2023-03-01T16:22:13;2.50;99.90
3792;DHT22;1911;53.768;11.474;2023-03-01T16:24:39;2.50;99.90
3792;DHT22;1911;53.768;11.474;2023-03-01T16:27:25;2.60;99.90
3792;DHT22;1911;53.768;11.474;2023-03-01T17:15:02;2.20;99.90
3792;DHT22;1911;53.768;11.474;2023-03-01T19:03:56;1.40;99.90
3792;DHT22;1911;53.768;11.474;2023-03-01T22:07:53;1.20;99.90
3792;DHT22;1911;53.768;11.474;2023-03-01T22:10:23;1.20;99.90
3792;DHT22;1911;53.768;11.474;2023-03-01T22:12:57;1.20;99.90
3792;DHT22;1911;53.768;11.474;2023-03-01T22:15:41;1.30;99.90
3792;DHT22;1911;53.768;11.474;2023-03-01T22:18:08;1.30;99.90
3792;DHT22;1911;53.768;11.474;2023-03-01T22:20:34;1.30;99.90
3792;DHT22;1911;53.768;11.474;2023-03-01T22:23:06;1.20;99.90
3792;DHT22;1911;53.768;11.474;2023-03-01T22:25:32;1.20;99.90
3792;DHT22;1911;53.768;11.474;2023-03-01T22:28:08;1.30;99.90
3792;DHT22;1911;53.768;11.474;2023-03-01T22:30:36;1.30;99.90
3792;DHT22;1911;53.768;11.474;2023-03-01T22:33:02;1.20;99.90
3792;DHT22;1911;53.768;11.474;2023-03-01T22:35:29;1.20;99.90
3792;DHT22;1911;53.768;11.474;2023-03-01T22:37:57;1.20;99.90
3792;DHT22;1911;53.768;11.474;2023-03-01T22:40:29;1.10;99.90
3792;DHT22;1911;53.768;11.474;2023-03-01T22:42:56;1.10;99.90
3792;DHT22;1911;53.768;11.474;2023-03-01T22:45:22;1.00;99.90
3792;DHT22;1911;53.768;11.474;2023-03-01T22:47:47;1.00;99.90
3792;DHT22;1911;53.768;11.474;2023-03-01T22:50:13;0.90;99.90
3792;DHT22;1911;53.768;11.474;2023-03-01T22:52:42;0.90;99.90
3792;DHT22;1911;53.768;11.474;2023-03-01T22:55:14;0.90;99.90
3792;DHT22;1911;53.768;11.474;2023-03-01T22:57:41;0.90;99.90
3792;DHT22;1911;53.768;11.474;2023-03-01T23:00:07;0.80;99.90
3792;DHT22;1911;53.768;11.474;2023-03-01T23:02:41;0.80;99.90
3792;DHT22;1911;53.768;11.474;2023-03-01T23:05:15;0.80;99.90
3792;DHT22;1911;53.768;11.474;2023-03-01T23:07:45;0.80;99.90
3792;DHT22;1911;53.768;11.474;2023-03-01T23:10:12;0.90;99.90
3792;DHT22;1911;53.768;11.474;2023-03-01T23:12:42;0.90;99.90
3792;DHT22;1911;53.768;11.474;2023-03-01T23:15:10;0.80;99.90
3792;DHT22;1911;53.768;11.474;2023-03-01T23:17:38;0.70;99.90
3792;DHT22;1911;53.768;11.474;2023-03-01T23:20:05;0.70;99.90
3792;DHT22;1911;53.768;11.474;2023-03-01T23:22:39;0.80;99.90
3792;DHT22;1911;53.768;11.474;2023-03-01T23:25:05;0.90;99.90
3792;DHT22;1911;53.768;11.474;2023-03-01T23:27:46;0.90;99.90
3792;DHT22;1911;53.768;11.474;2023-03-01T23:30:26;0.90;99.90
3792;DHT22;1911;53.768;11.474;2023-03-01T23:32:55;0.90;99.90
3792;DHT22;1911;53.768;11.474;2023-03-01T23:35:31;0.90;99.90
3792;DHT22;1911;53.768;11.474;2023-03-01T23:37:58;0.90;99.90
3792;DHT22;1911;53.768;11.474;2023-03-01T23:40:24;0.80;99.90
3792;DHT22;1911;53.768;11.474;2023-03-01T23:42:49;0.80;99.90
3792;DHT22;1911;53.768;11.474;2023-03-01T23:45:18;0.90;99.90
3792;DHT22;1911;53.768;11.474;2023-03-01T23:47:47;0.80;99.90
3792;DHT22;1911;53.768;11.474;2023-03-01T23:50:28;0.90;99.90
3792;DHT22;1911;53.768;11.474;2023-03-01T23:52:54;0.80;99.90
3792;DHT22;1911;53.768;11.474;2023-03-01T23:55:24;0.80;99.90
3792;DHT22;1911;53.768;11.474;2023-03-01T23:57:54;0.70;99.90
